Time;durP1;ratioP1;P1;durP2;ratioP2;P2;SDS_P1;SDS_P2;PMS_P1;PMS_P2;Temp;Humidity;BMP_temperature;BMP_pressure;BME280_temperature;BME280_humidity;BME280_pressure;Samples;Min_cycle;Max_cycle;Signal;HPM_P1;HPM_P2
2021/09/28 00:00:19;;;;;;;6.07;1.85;;;;;;;;;;5020482;28;20037;-80
2021/09/28 00:02:44;;;;;;;6.90;1.90;;;;;;;;;;5021217;28;20049;-81
2021/09/28 00:05:10;;;;;;;7.18;1.90;;;;;;;;;;5013648;28;20496;-80
2021/09/28 00:07:35;;;;;;;5.75;1.90;;;;;;;;;;5049530;28;20078;-82
2021/09/28 00:10:00;;;;;;;7.25;1.88;;;;;;;;;;5014916;28;20024;-80
2021/09/28 00:12:26;;;;;;;5.72;2.00;;;;;;;;;;5029981;28;20106;-82
2021/09/28 00:14:51;;;;;;;8.82;1.88;;;;;;;;;;5033032;28;20033;-83
2021/09/28 00:17:16;;;;;;;7.00;1.83;;;;;;;;;;5033199;28;20046;-83
2021/09/28 00:19:42;;;;;;;8.43;1.77;;;;;;;;;;5036697;28;20040;-80
2021/09/28 00:22:07;;;;;;;6.90;1.80;;;;;;;;;;5023728;28;20040;-80
2021/09/28 00:24:34;;;;;;;7.47;1.75;;;;;;;;;;5019429;28;20112;-81
2021/09/28 00:27:00;;;;;;;8.40;1.83;;;;;;;;;;5033532;28;20044;-83
2021/09/28 00:29:26;;;;;;;9.10;2.20;;;;;;;;;;5040165;28;20036;-82
2021/09/28 00:31:51;;;;;;;7.85;1.85;;;;;;;;;;5022555;28;20065;-81
2021/09/28 00:34:16;;;;;;;9.15;1.80;;;;;;;;;;5053658;28;20040;-83
2021/09/28 00:36:42;;;;;;;10.27;2.45;;;;;;;;;;5023990;28;20029;-80
2021/09/28 00:39:07;;;;;;;5.15;1.50;;;;;;;;;;5021777;28;20037;-82
2021/09/28 00:41:33;;;;;;;6.43;1.65;;;;;;;;;;4997769;28;20033;-83
2021/09/28 00:43:58;;;;;;;6.45;1.70;;;;;;;;;;5040182;28;20037;-83
2021/09/28 00:46:24;;;;;;;6.93;1.85;;;;;;;;;;5038351;28;20045;-80
2021/09/28 00:48:51;;;;;;;5.20;1.63;;;;;;;;;;5038174;28;20032;-81
2021/09/28 00:51:17;;;;;;;6.03;1.65;;;;;;;;;;5041263;28;20127;-83
2021/09/28 00:53:44;;;;;;;7.68;1.77;;;;;;;;;;5043403;28;20039;-80
2021/09/28 00:56:14;;;;;;;7.45;1.80;;;;;;;;;;5067351;28;20032;-82
2021/09/28 00:58:40;;;;;;;8.30;1.60;;;;;;;;;;5036415;28;20088;-83
2021/09/28 01:01:08;;;;;;;6.65;2.92;;;;;;;;;;5027217;28;20036;-82
2021/09/28 01:03:34;;;;;;;8.43;1.83;;;;;;;;;;5037446;28;20036;-83
2021/09/28 01:06:00;;;;;;;3.88;1.38;;;;;;;;;;5037458;28;20026;-80
2021/09/28 01:08:26;;;;;;;5.18;1.60;;;;;;;;;;5052662;28;20037;-83
2021/09/28 01:10:52;;;;;;;9.65;1.80;;;;;;;;;;5052479;28;20084;-81
2021/09/28 01:13:18;;;;;;;5.07;1.70;;;;;;;;;;5020053;28;20037;-83
2021/09/28 01:15:58;;;;;;;8.10;1.60;;;;;;;;;;5024193;28;20125;-83
2021/09/28 01:18:25;;;;;;;7.32;1.90;;;;;;;;;;5031635;28;20104;-80
2021/09/28 01:20:51;;;;;;;9.55;1.77;;;;;;;;;;5060316;28;20028;-80
2021/09/28 01:23:17;;;;;;;4.57;1.50;;;;;;;;;;5060617;28;20041;-81
2021/09/28 01:25:42;;;;;;;9.32;1.80;;;;;;;;;;5026038;28;20113;-83
2021/09/28 01:28:08;;;;;;;8.82;1.77;;;;;;;;;;5026563;28;20017;-83
2021/09/28 01:30:34;;;;;;;8.18;1.70;;;;;;;;;;5019567;28;20029;-80
2021/09/28 01:32:59;;;;;;;5.93;1.60;;;;;;;;;;5038161;28;20155;-80
2021/09/28 01:35:25;;;;;;;10.02;1.70;;;;;;;;;;5039003;28;20128;-80
2021/09/28 01:37:50;;;;;;;6.82;1.75;;;;;;;;;;5054632;28;20136;-81
2021/09/28 01:40:16;;;;;;;6.40;1.48;;;;;;;;;;5037944;28;20063;-82
2021/09/28 01:42:41;;;;;;;6.32;1.80;;;;;;;;;;5037014;28;20024;-80
2021/09/28 01:45:07;;;;;;;5.45;1.75;;;;;;;;;;5030439;28;20032;-83
2021/09/28 01:47:33;;;;;;;4.45;1.40;;;;;;;;;;5039554;28;20029;-80
2021/09/28 01:49:58;;;;;;;6.88;1.40;;;;;;;;;;5000616;28;20032;-82
2021/09/28 01:52:24;;;;;;;10.82;1.85;;;;;;;;;;5050990;28;20035;-82
2021/09/28 01:54:49;;;;;;;8.55;1.77;;;;;;;;;;5002853;28;20035;-82
2021/09/28 01:57:15;;;;;;;5.50;1.75;;;;;;;;;;5043612;28;20056;-80
2021/09/28 01:59:40;;;;;;;8.10;1.73;;;;;;;;;;5021580;28;20082;-81
2021/09/28 02:02:05;;;;;;;6.65;1.63;;;;;;;;;;5044845;28;20587;-81
2021/09/28 02:04:31;;;;;;;4.32;1.52;;;;;;;;;;5015872;28;20048;-80
2021/09/28 02:06:56;;;;;;;8.38;1.70;;;;;;;;;;5014565;28;20049;-80
2021/09/28 02:09:21;;;;;;;6.22;1.50;;;;;;;;;;5021734;28;20035;-81
2021/09/28 02:11:47;;;;;;;7.28;1.58;;;;;;;;;;5022831;28;20037;-80
2021/09/28 02:14:12;;;;;;;9.23;1.80;;;;;;;;;;5036507;28;20102;-81
2021/09/28 02:16:38;;;;;;;8.02;1.55;;;;;;;;;;5032464;28;20026;-80
2021/09/28 02:19:04;;;;;;;11.55;1.55;;;;;;;;;;5050607;28;20025;-81
2021/09/28 02:21:29;;;;;;;7.50;1.55;;;;;;;;;;5030195;28;20033;-81
2021/09/28 02:23:55;;;;;;;5.90;1.48;;;;;;;;;;5033314;28;20137;-82
2021/09/28 02:26:20;;;;;;;7.32;1.85;;;;;;;;;;5016219;28;20056;-80
2021/09/28 02:28:46;;;;;;;5.65;1.52;;;;;;;;;;5035451;28;20485;-80
2021/09/28 02:31:12;;;;;;;9.27;1.67;;;;;;;;;;5021385;28;20029;-83
2021/09/28 02:33:37;;;;;;;8.85;1.75;;;;;;;;;;5054391;28;20028;-80
2021/09/28 02:36:02;;;;;;;11.77;1.85;;;;;;;;;;5025927;28;20049;-82
2021/09/28 02:38:28;;;;;;;11.25;1.75;;;;;;;;;;5002200;28;20090;-83
2021/09/28 02:40:53;;;;;;;9.88;1.70;;;;;;;;;;5051438;28;20021;-82
2021/09/28 02:43:19;;;;;;;8.27;2.25;;;;;;;;;;5032305;28;20066;-82
2021/09/28 02:45:50;;;;;;;10.23;2.33;;;;;;;;;;5030337;28;20369;-80
2021/09/28 02:48:16;;;;;;;6.70;1.65;;;;;;;;;;5038291;28;20896;-80
2021/09/28 02:50:42;;;;;;;8.30;1.60;;;;;;;;;;5030865;28;20069;-82
2021/09/28 02:53:07;;;;;;;5.45;1.80;;;;;;;;;;5015882;28;20048;-81
2021/09/28 02:55:33;;;;;;;5.53;1.40;;;;;;;;;;5020177;28;20526;-81
2021/09/28 02:57:58;;;;;;;4.25;1.42;;;;;;;;;;5020122;28;20146;-81
2021/09/28 03:00:24;;;;;;;6.30;1.48;;;;;;;;;;5037813;28;20041;-80
2021/09/28 03:02:49;;;;;;;5.75;1.33;;;;;;;;;;5018585;28;20083;-80
2021/09/28 03:05:15;;;;;;;6.38;1.25;;;;;;;;;;5023785;28;20033;-82
2021/09/28 03:07:40;;;;;;;6.50;1.40;;;;;;;;;;5040276;28;20017;-82
2021/09/28 03:10:06;;;;;;;7.78;1.30;;;;;;;;;;5033633;28;20033;-83
2021/09/28 03:12:32;;;;;;;6.95;1.30;;;;;;;;;;5037574;28;20408;-81
2021/09/28 03:14:57;;;;;;;5.25;1.48;;;;;;;;;;5017086;28;20063;-80
2021/09/28 03:17:25;;;;;;;5.57;1.33;;;;;;;;;;5025377;28;20416;-83
2021/09/28 03:19:51;;;;;;;6.40;1.30;;;;;;;;;;5042132;28;20026;-80
2021/09/28 03:22:17;;;;;;;10.10;1.63;;;;;;;;;;5058145;28;20040;-80
2021/09/28 03:24:43;;;;;;;9.82;2.28;;;;;;;;;;5034467;28;20029;-82
2021/09/28 03:27:09;;;;;;;6.22;1.30;;;;;;;;;;5034599;28;20032;-80
2021/09/28 03:29:34;;;;;;;7.03;1.73;;;;;;;;;;5043574;28;20519;-80
2021/09/28 03:31:59;;;;;;;10.77;1.75;;;;;;;;;;5031571;28;20036;-81
2021/09/28 03:34:25;;;;;;;10.52;1.75;;;;;;;;;;5003328;28;20488;-80
2021/09/28 03:36:50;;;;;;;5.70;1.50;;;;;;;;;;5035414;28;20029;-80
2021/09/28 03:39:16;;;;;;;6.47;1.40;;;;;;;;;;5022604;28;20041;-83
2021/09/28 03:41:41;;;;;;;6.32;1.58;;;;;;;;;;5050694;28;20044;-83
2021/09/28 03:44:06;;;;;;;7.50;1.40;;;;;;;;;;5007145;28;20096;-83
2021/09/28 03:46:32;;;;;;;7.03;1.55;;;;;;;;;;5019883;28;20039;-80
2021/09/28 03:48:57;;;;;;;4.50;1.30;;;;;;;;;;5026573;28;20025;-83
2021/09/28 03:51:23;;;;;;;7.70;1.73;;;;;;;;;;5025400;28;20175;-83
2021/09/28 03:53:51;;;;;;;6.65;1.67;;;;;;;;;;5013118;28;20485;-80
2021/09/28 03:56:18;;;;;;;6.15;1.52;;;;;;;;;;5035000;28;20043;-80
2021/09/28 03:58:44;;;;;;;5.93;1.33;;;;;;;;;;5036741;28;20053;-80
2021/09/28 04:01:10;;;;;;;5.95;1.40;;;;;;;;;;5031372;28;20086;-82
2021/09/28 04:03:35;;;;;;;8.23;2.25;;;;;;;;;;5013533;28;20384;-80
2021/09/28 04:06:00;;;;;;;7.30;1.60;;;;;;;;;;5012467;28;20040;-83
2021/09/28 04:08:26;;;;;;;6.63;1.60;;;;;;;;;;5005222;28;20055;-82
2021/09/28 04:10:51;;;;;;;7.22;1.60;;;;;;;;;;5017501;28;20033;-81
2021/09/28 04:13:17;;;;;;;7.05;1.38;;;;;;;;;;5029415;28;20427;-80
2021/09/28 04:15:42;;;;;;;11.20;1.73;;;;;;;;;;5036811;28;20038;-80
2021/09/28 04:18:12;;;;;;;8.65;1.40;;;;;;;;;;5054721;28;20025;-82
2021/09/28 04:20:42;;;;;;;6.90;1.40;;;;;;;;;;5038261;28;20033;-81
2021/09/28 04:23:09;;;;;;;7.28;1.23;;;;;;;;;;5038667;28;20037;-80
2021/09/28 04:25:35;;;;;;;6.40;1.25;;;;;;;;;;5058141;28;20087;-81
2021/09/28 04:28:01;;;;;;;9.60;1.60;;;;;;;;;;5052993;28;20025;-81
2021/09/28 04:30:26;;;;;;;6.47;1.52;;;;;;;;;;5013910;28;20025;-81
2021/09/28 04:32:52;;;;;;;8.27;1.73;;;;;;;;;;5036546;28;20120;-80
2021/09/28 04:35:17;;;;;;;5.30;1.30;;;;;;;;;;5036240;28;20483;-83
2021/09/28 04:37:43;;;;;;;8.45;1.20;;;;;;;;;;5018049;28;20029;-83
2021/09/28 04:40:09;;;;;;;6.88;1.50;;;;;;;;;;5023416;28;20032;-82
2021/09/28 04:42:34;;;;;;;6.43;1.48;;;;;;;;;;5033508;28;20067;-81
2021/09/28 04:45:00;;;;;;;5.43;1.23;;;;;;;;;;5021663;28;20025;-81
2021/09/28 04:47:25;;;;;;;6.63;1.67;;;;;;;;;;5035189;28;20480;-80
2021/09/28 04:49:50;;;;;;;8.63;1.40;;;;;;;;;;5015624;28;20033;-81
2021/09/28 04:52:16;;;;;;;6.40;1.45;;;;;;;;;;5029153;28;20060;-80
2021/09/28 04:54:42;;;;;;;5.43;1.20;;;;;;;;;;5016558;28;20033;-80
2021/09/28 04:57:07;;;;;;;3.90;1.27;;;;;;;;;;5021861;28;20071;-80
2021/09/28 04:59:33;;;;;;;9.25;1.60;;;;;;;;;;5031830;28;20029;-81
2021/09/28 05:01:59;;;;;;;10.40;2.00;;;;;;;;;;5029392;28;20049;-83
2021/09/28 05:04:24;;;;;;;6.10;1.40;;;;;;;;;;5021786;28;20083;-80
2021/09/28 05:06:49;;;;;;;6.97;1.20;;;;;;;;;;5020053;28;20033;-82
2021/09/28 05:09:15;;;;;;;8.60;1.40;;;;;;;;;;5022641;28;20549;-82
2021/09/28 05:11:40;;;;;;;6.22;1.63;;;;;;;;;;5040717;28;20089;-83
2021/09/28 05:14:07;;;;;;;14.30;2.33;;;;;;;;;;5028800;28;20116;-82
2021/09/28 05:16:32;;;;;;;5.10;1.35;;;;;;;;;;5030443;28;20030;-83
2021/09/28 05:18:57;;;;;;;7.97;1.50;;;;;;;;;;5018924;28;20036;-81
2021/09/28 05:21:23;;;;;;;7.57;1.48;;;;;;;;;;5040953;28;20033;-82
2021/09/28 05:23:49;;;;;;;6.55;1.52;;;;;;;;;;5010380;28;20505;-80
2021/09/28 05:26:15;;;;;;;6.88;1.35;;;;;;;;;;5040174;28;20036;-80
2021/09/28 05:28:41;;;;;;;5.15;1.35;;;;;;;;;;5056360;28;20395;-80
2021/09/28 05:31:07;;;;;;;6.50;1.42;;;;;;;;;;5063582;28;20439;-83
2021/09/28 05:33:33;;;;;;;4.68;1.30;;;;;;;;;;5025442;28;20034;-83
2021/09/28 05:35:58;;;;;;;4.00;1.23;;;;;;;;;;5067661;28;20078;-83
2021/09/28 05:38:25;;;;;;;5.85;1.20;;;;;;;;;;5066922;28;20087;-83
2021/09/28 05:40:50;;;;;;;7.13;1.90;;;;;;;;;;5036196;28;20021;-80
2021/09/28 05:43:16;;;;;;;7.55;1.50;;;;;;;;;;5035242;28;20040;-80
2021/09/28 05:45:41;;;;;;;5.85;1.42;;;;;;;;;;5036319;28;20029;-80
2021/09/28 05:48:07;;;;;;;6.45;1.58;;;;;;;;;;5025676;28;20032;-83
2021/09/28 05:50:35;;;;;;;6.07;2.20;;;;;;;;;;5024198;28;20029;-82
2021/09/28 05:53:07;;;;;;;5.78;1.40;;;;;;;;;;5022087;28;20132;-82
2021/09/28 05:55:33;;;;;;;5.05;1.30;;;;;;;;;;5040124;28;20091;-83
2021/09/28 05:57:58;;;;;;;5.28;1.67;;;;;;;;;;5040554;28;20045;-81
2021/09/28 06:00:23;;;;;;;6.85;1.45;;;;;;;;;;5010115;28;20033;-80
2021/09/28 06:02:49;;;;;;;4.55;1.33;;;;;;;;;;5026399;28;20053;-82
2021/09/28 06:05:14;;;;;;;6.78;1.58;;;;;;;;;;5026990;28;20044;-80
2021/09/28 06:07:40;;;;;;;5.70;1.42;;;;;;;;;;5037280;28;20451;-82
2021/09/28 06:10:06;;;;;;;8.80;1.75;;;;;;;;;;5043097;28;20119;-81
2021/09/28 06:12:32;;;;;;;3.53;1.27;;;;;;;;;;5041441;28;20028;-83
2021/09/28 06:14:57;;;;;;;6.75;1.40;;;;;;;;;;5043366;28;20029;-83
2021/09/28 06:17:22;;;;;;;8.88;2.35;;;;;;;;;;5012389;28;20401;-81
2021/09/28 06:19:49;;;;;;;9.25;1.60;;;;;;;;;;5028968;28;20025;-81
2021/09/28 06:22:14;;;;;;;6.10;1.50;;;;;;;;;;5032883;28;20028;-81
2021/09/28 06:24:40;;;;;;;6.25;1.58;;;;;;;;;;5005406;28;20029;-81
2021/09/28 06:27:07;;;;;;;6.65;1.38;;;;;;;;;;5021154;28;20072;-82
2021/09/28 06:29:33;;;;;;;6.05;1.65;;;;;;;;;;5034603;28;20495;-81
2021/09/28 06:31:59;;;;;;;7.45;2.10;;;;;;;;;;5031229;28;20029;-82
2021/09/28 06:34:25;;;;;;;5.95;1.50;;;;;;;;;;5033326;28;20033;-82
2021/09/28 06:36:51;;;;;;;6.88;2.08;;;;;;;;;;5068978;28;20023;-83
2021/09/28 06:39:16;;;;;;;7.03;2.08;;;;;;;;;;5033877;28;20032;-81
2021/09/28 06:41:42;;;;;;;8.88;1.83;;;;;;;;;;5060532;28;20548;-82
2021/09/28 06:44:08;;;;;;;7.82;1.63;;;;;;;;;;5025471;28;20438;-83
2021/09/28 06:46:34;;;;;;;7.72;1.85;;;;;;;;;;5023115;28;20033;-83
2021/09/28 06:48:59;;;;;;;5.82;1.73;;;;;;;;;;5020808;28;20029;-81
2021/09/28 06:51:25;;;;;;;6.03;1.35;;;;;;;;;;5048226;28;20037;-81
2021/09/28 06:53:50;;;;;;;3.50;1.33;;;;;;;;;;5059202;28;20028;-81
2021/09/28 06:56:20;;;;;;;8.48;2.10;;;;;;;;;;5063485;28;20025;-81
2021/09/28 06:58:47;;;;;;;6.47;2.20;;;;;;;;;;5017181;28;20057;-81
2021/09/28 07:01:13;;;;;;;6.25;1.58;;;;;;;;;;5051997;28;20029;-81
2021/09/28 07:03:39;;;;;;;5.82;1.65;;;;;;;;;;5043204;28;20033;-83
2021/09/28 07:06:04;;;;;;;5.55;1.30;;;;;;;;;;5005650;28;20098;-81
2021/09/28 07:08:30;;;;;;;7.80;1.92;;;;;;;;;;5012147;28;20037;-81
2021/09/28 07:10:56;;;;;;;8.55;2.00;;;;;;;;;;5034961;28;20037;-83
2021/09/28 07:13:21;;;;;;;7.13;2.00;;;;;;;;;;5022294;28;20032;-81
2021/09/28 07:15:47;;;;;;;7.18;1.80;;;;;;;;;;5001776;28;20128;-81
2021/09/28 07:18:12;;;;;;;7.00;1.80;;;;;;;;;;5023178;28;20040;-81
2021/09/28 07:20:38;;;;;;;5.82;1.73;;;;;;;;;;5034798;28;20054;-82
2021/09/28 07:23:04;;;;;;;5.55;2.03;;;;;;;;;;5022719;28;20119;-83
2021/09/28 07:25:30;;;;;;;8.80;2.17;;;;;;;;;;5033866;28;20099;-83
2021/09/28 07:27:58;;;;;;;8.18;2.95;;;;;;;;;;5032189;28;20040;-83
2021/09/28 07:30:25;;;;;;;9.43;2.10;;;;;;;;;;5058449;28;20029;-81
2021/09/28 07:32:51;;;;;;;7.75;2.10;;;;;;;;;;5013342;28;20096;-83
2021/09/28 07:35:17;;;;;;;4.85;1.95;;;;;;;;;;5021028;28;20029;-83
2021/09/28 07:37:42;;;;;;;7.72;2.35;;;;;;;;;;5017609;28;20124;-81
2021/09/28 07:40:08;;;;;;;10.50;3.50;;;;;;;;;;5036002;28;20028;-81
2021/09/28 07:42:34;;;;;;;9.80;2.45;;;;;;;;;;5026566;28;20052;-82
2021/09/28 07:45:03;;;;;;;8.80;2.20;;;;;;;;;;5034312;28;20031;-83
2021/09/28 07:47:28;;;;;;;7.95;2.35;;;;;;;;;;5058717;28;20041;-81
2021/09/28 07:49:54;;;;;;;12.20;3.00;;;;;;;;;;5043848;28;20447;-83
2021/09/28 07:52:19;;;;;;;9.52;2.47;;;;;;;;;;5017378;28;20597;-81
2021/09/28 07:54:44;;;;;;;6.63;2.53;;;;;;;;;;5034136;28;20062;-84
2021/09/28 07:57:10;;;;;;;8.32;2.38;;;;;;;;;;5001414;28;20416;-81
2021/09/28 07:59:38;;;;;;;7.60;2.40;;;;;;;;;;5039678;28;20032;-82
2021/09/28 08:02:04;;;;;;;11.45;2.53;;;;;;;;;;5033599;28;20025;-83
2021/09/28 08:04:29;;;;;;;9.23;2.83;;;;;;;;;;5036426;28;20039;-81
2021/09/28 08:06:55;;;;;;;11.65;3.38;;;;;;;;;;5024425;28;20404;-83
2021/09/28 08:09:21;;;;;;;7.75;2.28;;;;;;;;;;5026120;28;20061;-82
2021/09/28 08:11:47;;;;;;;5.50;2.30;;;;;;;;;;5031463;28;20508;-81
2021/09/28 08:14:12;;;;;;;7.90;2.30;;;;;;;;;;4999729;28;20428;-83
2021/09/28 08:16:38;;;;;;;7.53;2.35;;;;;;;;;;5018368;28;20060;-82
2021/09/28 08:19:04;;;;;;;10.02;2.50;;;;;;;;;;5020400;28;20036;-84
2021/09/28 08:21:30;;;;;;;8.50;2.65;;;;;;;;;;5031976;28;20127;-81
2021/09/28 08:23:56;;;;;;;8.77;2.40;;;;;;;;;;5023103;28;20063;-80
2021/09/28 08:29:09;;;;;;;7.60;2.97;;;;;;;;;;5052304;28;20049;-80
2021/09/28 08:31:39;;;;;;;8.90;2.20;;;;;;;;;;5039422;28;20026;-80
2021/09/28 08:34:05;;;;;;;9.93;2.80;;;;;;;;;;5034129;28;20082;-81
2021/09/28 08:36:32;;;;;;;8.93;2.17;;;;;;;;;;5061598;28;20032;-81
2021/09/28 08:38:57;;;;;;;9.73;2.72;;;;;;;;;;5050009;28;20057;-83
2021/09/28 08:41:23;;;;;;;7.90;2.35;;;;;;;;;;5023637;28;20025;-82
2021/09/28 08:43:50;;;;;;;7.97;2.30;;;;;;;;;;5059190;28;20029;-80
2021/09/28 08:46:19;;;;;;;8.45;2.53;;;;;;;;;;5015599;28;20030;-81
2021/09/28 08:48:47;;;;;;;11.38;2.40;;;;;;;;;;5033907;28;20034;-81
2021/09/28 08:51:12;;;;;;;11.07;2.53;;;;;;;;;;5052790;28;20499;-81
2021/09/28 08:53:38;;;;;;;10.90;2.45;;;;;;;;;;5042452;28;20032;-82
2021/09/28 08:56:05;;;;;;;12.75;2.38;;;;;;;;;;5039647;28;20037;-82
2021/09/28 08:58:31;;;;;;;9.38;2.90;;;;;;;;;;5045393;28;20056;-83
2021/09/28 09:01:07;;;;;;;7.43;2.42;;;;;;;;;;5007776;28;20033;-82
2021/09/28 09:03:36;;;;;;;9.38;2.50;;;;;;;;;;5024833;28;20029;-83
2021/09/28 09:06:04;;;;;;;10.82;2.80;;;;;;;;;;5039755;28;20116;-82
2021/09/28 09:08:34;;;;;;;13.23;2.95;;;;;;;;;;5039632;28;20116;-83
2021/09/28 09:11:10;;;;;;;12.00;2.65;;;;;;;;;;5057247;28;20499;-82
2021/09/28 09:13:41;;;;;;;9.60;2.42;;;;;;;;;;5041558;28;20025;-83
2021/09/28 09:16:10;;;;;;;10.27;2.30;;;;;;;;;;5054830;28;20051;-81
2021/09/28 09:18:36;;;;;;;8.32;2.30;;;;;;;;;;5055425;28;20040;-81
2021/09/28 09:21:07;;;;;;;8.70;2.53;;;;;;;;;;5043602;28;20399;-81
2021/09/28 09:23:37;;;;;;;11.25;2.78;;;;;;;;;;5046382;28;20063;-83
2021/09/28 09:26:13;;;;;;;8.50;2.38;;;;;;;;;;5028949;28;20025;-82
2021/09/28 09:28:43;;;;;;;8.98;2.20;;;;;;;;;;5033196;28;20376;-83
2021/09/28 09:31:34;;;;;;;14.82;2.60;;;;;;;;;;5040829;28;20128;-82
2021/09/28 09:34:05;;;;;;;9.25;2.05;;;;;;;;;;5041948;28;20028;-83
2021/09/28 09:36:31;;;;;;;8.63;1.88;;;;;;;;;;5064527;28;20064;-81
2021/09/28 09:38:57;;;;;;;9.60;2.05;;;;;;;;;;5047089;28;20028;-83
2021/09/28 09:41:30;;;;;;;12.52;2.28;;;;;;;;;;5009576;28;20037;-80
2021/09/28 09:44:16;;;;;;;11.50;2.20;;;;;;;;;;5036488;28;20034;-84
2021/09/28 09:46:47;;;;;;;10.40;2.00;;;;;;;;;;5035240;28;20452;-82
2021/09/28 09:49:15;;;;;;;13.02;1.92;;;;;;;;;;5063682;28;20016;-81
2021/09/28 09:51:47;;;;;;;9.63;2.40;;;;;;;;;;5039450;28;20111;-82
2021/09/28 09:54:13;;;;;;;9.27;2.15;;;;;;;;;;5037559;28;20025;-82
2021/09/28 09:56:51;;;;;;;11.55;1.88;;;;;;;;;;5046833;28;20047;-81
2021/09/28 09:59:22;;;;;;;9.82;2.17;;;;;;;;;;5057159;28;20504;-83
2021/09/28 10:01:49;;;;;;;9.98;1.95;;;;;;;;;;5025151;28;20029;-81
2021/09/28 10:04:21;;;;;;;9.13;2.03;;;;;;;;;;5036458;28;20029;-81
2021/09/28 10:06:47;;;;;;;11.73;1.95;;;;;;;;;;5058150;28;20028;-82
2021/09/28 10:09:18;;;;;;;10.95;2.65;;;;;;;;;;5040045;28;20091;-83
2021/09/28 10:11:44;;;;;;;9.93;2.33;;;;;;;;;;5042564;28;20029;-81
2021/09/28 10:14:35;;;;;;;11.85;2.30;;;;;;;;;;5020116;28;20029;-82
2021/09/28 10:17:27;;;;;;;13.68;2.88;;;;;;;;;;5054482;28;20025;-82
2021/09/28 10:19:54;;;;;;;9.90;1.90;;;;;;;;;;5054082;28;20421;-82
2021/09/28 10:22:42;;;;;;;9.32;2.10;;;;;;;;;;5037476;28;20705;-82
2021/09/28 10:25:19;;;;;;;7.80;1.95;;;;;;;;;;5047214;28;20487;-82
2021/09/28 10:27:53;;;;;;;9.88;1.90;;;;;;;;;;5058755;28;20357;-81
2021/09/28 10:30:40;;;;;;;8.15;2.05;;;;;;;;;;5021246;28;20028;-82
2021/09/28 10:33:06;;;;;;;10.88;2.03;;;;;;;;;;5049872;28;20036;-82
2021/09/28 10:35:35;;;;;;;8.90;1.77;;;;;;;;;;5040030;28;20064;-81
2021/09/28 10:38:03;;;;;;;9.95;1.63;;;;;;;;;;5038697;28;20021;-80
2021/09/28 10:40:28;;;;;;;9.80;2.30;;;;;;;;;;5043307;28;20013;-82
2021/09/28 10:42:59;;;;;;;11.80;1.67;;;;;;;;;;5034615;28;20032;-81
2021/09/28 10:45:33;;;;;;;7.07;1.75;;;;;;;;;;5036549;28;20021;-81
2021/09/28 10:48:06;;;;;;;8.18;1.40;;;;;;;;;;5035484;28;20036;-82
2021/09/28 10:50:42;;;;;;;7.07;1.50;;;;;;;;;;5037672;28;20516;-81
2021/09/28 10:53:20;;;;;;;8.15;1.35;;;;;;;;;;5044572;28;20025;-81
2021/09/28 10:55:59;;;;;;;8.13;1.83;;;;;;;;;;5047895;28;20119;-81
2021/09/28 10:58:26;;;;;;;5.28;1.52;;;;;;;;;;5056480;28;20134;-80
2021/09/28 11:00:54;;;;;;;7.78;2.10;;;;;;;;;;5055814;28;20028;-80
2021/09/28 11:03:42;;;;;;;8.35;1.55;;;;;;;;;;5055283;28;20027;-81
2021/09/28 11:06:08;;;;;;;8.45;1.83;;;;;;;;;;5062171;28;20388;-81
2021/09/28 11:08:36;;;;;;;9.05;1.27;;;;;;;;;;5051565;28;20031;-82
2021/09/28 11:11:04;;;;;;;8.73;1.42;;;;;;;;;;5043622;28;20106;-82
2021/09/28 11:13:35;;;;;;;11.00;2.42;;;;;;;;;;5062014;28;20056;-82
2021/09/28 11:16:03;;;;;;;8.63;1.55;;;;;;;;;;5040303;28;20048;-81
2021/09/28 11:18:28;;;;;;;7.40;1.63;;;;;;;;;;5035101;28;20083;-81
2021/09/28 11:21:07;;;;;;;7.15;1.27;;;;;;;;;;5063507;28;20025;-81
2021/09/28 11:23:33;;;;;;;7.78;1.52;;;;;;;;;;5057262;28;20086;-81
2021/09/28 11:25:58;;;;;;;9.85;1.52;;;;;;;;;;5044556;28;20033;-83
2021/09/28 11:28:24;;;;;;;9.30;1.77;;;;;;;;;;5039120;28;20036;-81
2021/09/28 11:30:58;;;;;;;10.65;1.95;;;;;;;;;;5058916;28;20452;-81
2021/09/28 11:33:24;;;;;;;10.98;1.40;;;;;;;;;;5022582;28;20119;-81
2021/09/28 11:35:58;;;;;;;9.18;1.20;;;;;;;;;;5068383;28;20036;-82
2021/09/28 11:38:29;;;;;;;6.53;1.30;;;;;;;;;;5018424;28;20369;-83
2021/09/28 11:40:59;;;;;;;7.35;0.98;;;;;;;;;;5057271;28;20022;-81
2021/09/28 11:43:28;;;;;;;7.40;1.05;;;;;;;;;;5021242;28;20096;-82
2021/09/28 11:46:05;;;;;;;9.60;1.55;;;;;;;;;;5025014;28;20032;-82
2021/09/28 11:48:58;;;;;;;5.75;1.00;;;;;;;;;;5029762;28;20112;-82
2021/09/28 11:51:44;;;;;;;7.47;1.77;;;;;;;;;;5037688;28;20058;-81
2021/09/28 11:54:12;;;;;;;5.10;1.02;;;;;;;;;;5034503;28;20041;-82
2021/09/28 11:56:40;;;;;;;6.82;1.13;;;;;;;;;;5060846;28;20032;-82
2021/09/28 11:59:11;;;;;;;9.60;1.15;;;;;;;;;;5032374;28;20045;-81
2021/09/28 12:01:37;;;;;;;5.80;0.90;;;;;;;;;;5053339;28;20033;-81
2021/09/28 12:04:07;;;;;;;8.30;1.20;;;;;;;;;;5023066;28;20067;-80
2021/09/28 12:06:46;;;;;;;7.25;1.35;;;;;;;;;;5032024;28;20040;-81
2021/09/28 12:09:12;;;;;;;10.32;1.48;;;;;;;;;;5054059;28;20029;-82
2021/09/28 12:12:02;;;;;;;5.05;0.93;;;;;;;;;;5041454;28;20462;-80
2021/09/28 12:14:39;;;;;;;5.05;1.40;;;;;;;;;;5039712;28;20487;-81
2021/09/28 12:17:21;;;;;;;10.05;1.38;;;;;;;;;;5034131;28;20025;-81
2021/09/28 12:19:55;;;;;;;7.70;1.20;;;;;;;;;;5032793;28;20029;-81
2021/09/28 12:22:50;;;;;;;6.65;1.10;;;;;;;;;;5047721;28;20028;-82
2021/09/28 12:25:19;;;;;;;6.13;0.95;;;;;;;;;;5045162;28;20025;-83
2021/09/28 12:28:09;;;;;;;6.95;0.90;;;;;;;;;;5040191;28;20395;-83
2021/09/28 12:30:58;;;;;;;8.25;1.30;;;;;;;;;;5036112;28;20059;-81
2021/09/28 12:33:25;;;;;;;6.32;1.17;;;;;;;;;;5026039;28;20041;-83
2021/09/28 12:36:01;;;;;;;5.22;0.98;;;;;;;;;;5023135;28;20052;-81
2021/09/28 12:38:27;;;;;;;5.65;0.93;;;;;;;;;;5041130;28;20039;-82
2021/09/28 12:41:04;;;;;;;6.18;1.00;;;;;;;;;;5066298;28;20029;-81
2021/09/28 12:43:29;;;;;;;10.18;1.15;;;;;;;;;;5054038;28;20023;-81
2021/09/28 12:45:57;;;;;;;9.77;1.15;;;;;;;;;;5052070;28;20029;-81
2021/09/28 12:48:32;;;;;;;6.85;1.20;;;;;;;;;;5061035;28;20051;-81
2021/09/28 12:51:04;;;;;;;6.00;1.20;;;;;;;;;;5024851;28;20101;-80
2021/09/28 12:53:30;;;;;;;7.55;1.02;;;;;;;;;;5034401;28;20025;-80
2021/09/28 12:55:56;;;;;;;5.20;1.00;;;;;;;;;;5042469;28;20147;-82
2021/09/28 12:58:21;;;;;;;7.65;1.50;;;;;;;;;;5023954;28;20095;-83
2021/09/28 13:00:50;;;;;;;5.22;0.98;;;;;;;;;;5032744;28;20029;-81
2021/09/28 13:03:20;;;;;;;6.60;1.08;;;;;;;;;;5062186;28;20025;-81
2021/09/28 13:05:49;;;;;;;5.82;0.85;;;;;;;;;;5068817;28;20024;-81
2021/09/28 13:08:14;;;;;;;8.23;1.10;;;;;;;;;;5031854;28;20124;-83
2021/09/28 13:10:40;;;;;;;4.57;1.00;;;;;;;;;;5022517;28;20514;-81
2021/09/28 13:13:06;;;;;;;9.55;1.20;;;;;;;;;;5003545;28;20043;-83
2021/09/28 13:15:32;;;;;;;8.02;1.17;;;;;;;;;;5035705;28;20037;-83
2021/09/28 13:17:57;;;;;;;4.75;0.90;;;;;;;;;;5028603;28;20510;-83
2021/09/28 13:20:22;;;;;;;5.15;1.00;;;;;;;;;;5040957;28;20349;-80
2021/09/28 13:22:48;;;;;;;5.63;1.05;;;;;;;;;;5042005;28;20037;-81
2021/09/28 13:25:14;;;;;;;6.55;1.00;;;;;;;;;;5064396;28;20044;-82
2021/09/28 13:27:40;;;;;;;8.23;1.20;;;;;;;;;;5068178;28;20048;-83
2021/09/28 13:30:07;;;;;;;3.88;0.93;;;;;;;;;;5016717;28;20446;-81
2021/09/28 13:32:32;;;;;;;8.35;1.23;;;;;;;;;;5059739;28;20053;-81
2021/09/28 13:34:58;;;;;;;4.10;0.90;;;;;;;;;;5033533;28;20395;-82
2021/09/28 13:37:28;;;;;;;4.55;1.00;;;;;;;;;;5021139;28;20739;-83
2021/09/28 13:39:54;;;;;;;7.63;1.05;;;;;;;;;;5031447;28;20029;-81
2021/09/28 13:42:20;;;;;;;5.93;1.00;;;;;;;;;;5040793;28;20028;-81
2021/09/28 13:44:46;;;;;;;7.20;0.95;;;;;;;;;;5020443;28;20067;-82
2021/09/28 13:47:12;;;;;;;6.03;1.00;;;;;;;;;;5019502;28;20033;-81
2021/09/28 13:49:37;;;;;;;6.90;1.15;;;;;;;;;;5045173;28;20029;-82
2021/09/28 13:52:06;;;;;;;8.25;1.00;;;;;;;;;;5026501;28;20036;-81
2021/09/28 13:54:32;;;;;;;4.60;1.10;;;;;;;;;;5059172;28;20056;-80
2021/09/28 13:56:57;;;;;;;2.92;0.90;;;;;;;;;;5042654;28;20049;-80
2021/09/28 13:59:23;;;;;;;5.50;1.30;;;;;;;;;;5012928;28;20048;-80
2021/09/28 14:01:48;;;;;;;6.20;0.95;;;;;;;;;;5056039;28;20032;-83
2021/09/28 14:04:14;;;;;;;2.45;0.90;;;;;;;;;;5036742;28;20233;-81
2021/09/28 14:06:39;;;;;;;4.10;0.90;;;;;;;;;;5019271;28;20405;-82
2021/09/28 14:09:06;;;;;;;6.70;1.40;;;;;;;;;;5020064;28;20103;-81
2021/09/28 14:11:31;;;;;;;6.05;1.30;;;;;;;;;;5024258;28;20029;-82
2021/09/28 14:13:56;;;;;;;4.93;0.80;;;;;;;;;;5032256;28;20052;-83
2021/09/28 14:16:22;;;;;;;7.22;1.10;;;;;;;;;;5015804;28;20038;-81
2021/09/28 14:18:49;;;;;;;4.28;1.00;;;;;;;;;;5002241;28;20042;-83
2021/09/28 14:21:14;;;;;;;7.03;1.33;;;;;;;;;;5019648;28;20029;-83
2021/09/28 14:23:40;;;;;;;4.60;1.02;;;;;;;;;;5037618;28;20087;-82
2021/09/28 14:26:06;;;;;;;7.78;1.40;;;;;;;;;;5045449;28;20055;-82
2021/09/28 14:28:31;;;;;;;5.32;1.30;;;;;;;;;;5016567;28;20072;-82
2021/09/28 14:30:57;;;;;;;4.15;1.20;;;;;;;;;;5030439;28;20028;-82
2021/09/28 14:33:24;;;;;;;6.32;1.20;;;;;;;;;;5049780;28;20037;-81
2021/09/28 14:35:50;;;;;;;9.32;2.08;;;;;;;;;;5023466;28;20044;-81
2021/09/28 14:38:15;;;;;;;6.97;1.67;;;;;;;;;;5019782;28;20388;-80
2021/09/28 14:40:40;;;;;;;3.40;1.00;;;;;;;;;;5033993;28;20040;-82
2021/09/28 14:43:06;;;;;;;4.13;1.00;;;;;;;;;;5020434;28;20045;-82
2021/09/28 14:45:31;;;;;;;5.00;1.10;;;;;;;;;;5025931;28;20040;-83